Time;durP1;ratioP1;P1;durP2;ratioP2;P2;SDS_P1;SDS_P2;PMS_P1;PMS_P2;Temp;Humidity;BMP_temperature;BMP_pressure;BME280_temperature;BME280_humidity;BME280_pressure;Samples;Min_cycle;Max_cycle;Signal;HPM_P1;HPM_P2
2020/12/04 05:00:16;;;;;;;19.67;13.50;;;3.40;99.90;;;;;;6050484;23;20682;-63
2020/12/04 05:02:46;;;;;;;17.07;12.80;;;3.50;99.90;;;;;;4975100;28;20471;-63
2020/12/04 05:05:12;;;;;;;15.20;12.83;;;3.50;99.90;;;;;;4975413;28;20486;-63
2020/12/04 05:07:38;;;;;;;16.50;12.97;;;3.50;99.90;;;;;;4974983;28;20450;-63
2020/12/04 05:10:12;;;;;;;19.93;13.97;;;3.60;99.90;;;;;;4975588;28;20841;-65
2020/12/04 05:12:39;;;;;;;18.57;14.30;;;3.60;99.90;;;;;;4956133;29;20932;-63
2020/12/04 05:15:22;;;;;;;18.63;14.83;;;3.50;99.90;;;;;;4956696;29;20459;-63
2020/12/04 05:18:02;;;;;;;19.60;15.00;;;3.40;99.90;;;;;;4957276;28;20522;-65
2020/12/04 05:20:29;;;;;;;25.10;15.10;;;3.40;99.90;;;;;;4956229;28;20452;-65
2020/12/04 05:22:56;;;;;;;20.00;14.83;;;3.50;99.90;;;;;;4956248;29;20812;-62
2020/12/04 05:25:22;;;;;;;19.20;14.97;;;3.50;99.90;;;;;;4956781;29;20462;-63
2020/12/04 05:27:49;;;;;;;16.77;13.13;;;3.50;99.90;;;;;;4956001;28;20459;-63
2020/12/04 05:30:24;;;;;;;17.70;14.30;;;3.50;99.90;;;;;;4956190;28;20841;-65
2020/12/04 05:33:01;;;;;;;18.17;14.20;;;3.40;99.90;;;;;;4956295;29;20446;-64
2020/12/04 05:35:28;;;;;;;19.27;14.73;;;3.40;99.90;;;;;;4955903;29;20942;-64
2020/12/04 05:38:09;;;;;;;19.17;14.57;;;3.50;99.90;;;;;;4956141;29;20448;-64
2020/12/04 05:40:36;;;;;;;19.27;14.43;;;3.50;99.90;;;;;;4956200;28;20828;-65
2020/12/04 05:43:02;;;;;;;19.60;13.90;;;3.50;99.90;;;;;;4956312;29;20454;-64
2020/12/04 05:45:30;;;;;;;17.90;13.50;;;3.50;99.90;;;;;;4956035;29;20796;-65
2020/12/04 05:47:56;;;;;;;17.00;13.40;;;3.50;99.90;;;;;;4958323;29;20451;-63
2020/12/04 05:50:23;;;;;;;18.90;13.90;;;3.50;99.90;;;;;;4957304;28;20490;-65
2020/12/04 05:52:49;;;;;;;15.67;13.57;;;3.50;99.90;;;;;;4956778;29;20948;-64
2020/12/04 05:55:16;;;;;;;15.93;13.00;;;3.50;99.90;;;;;;4955780;29;20470;-63
2020/12/04 05:57:55;;;;;;;14.60;12.60;;;3.50;99.90;;;;;;4955757;29;20507;-66
2020/12/04 06:00:22;;;;;;;17.87;13.00;;;3.50;99.90;;;;;;4955463;28;20436;-64
2020/12/04 06:02:57;;;;;;;16.67;12.57;;;3.50;99.90;;;;;;4955456;29;20443;-65
2020/12/04 06:05:25;;;;;;;21.63;14.30;;;3.40;99.90;;;;;;4955099;29;20444;-63
2020/12/04 06:07:58;;;;;;;15.77;11.90;;;3.30;99.90;;;;;;4955289;29;20455;-64
2020/12/04 06:10:24;;;;;;;15.87;13.83;;;3.60;99.90;;;;;;4955614;28;20507;-64
2020/12/04 06:12:52;;;;;;;17.80;13.30;;;3.70;99.90;;;;;;4954907;29;20455;-64
2020/12/04 06:15:20;;;;;;;15.90;13.20;;;3.60;99.90;;;;;;4954895;29;20455;-65
2020/12/04 06:17:46;;;;;;;15.60;11.80;;;3.60;99.90;;;;;;4954942;29;20456;-64
2020/12/04 06:20:18;;;;;;;15.87;12.27;;;3.60;99.90;;;;;;4954933;28;20797;-65
2020/12/04 06:23:04;;;;;;;16.10;12.37;;;3.40;99.90;;;;;;4955500;29;20476;-65
2020/12/04 06:26:03;;;;;;;16.77;12.50;;;3.30;99.90;;;;;;4955410;29;20440;-65
2020/12/04 06:28:31;;;;;;;18.50;13.00;;;3.30;99.90;;;;;;4955363;28;20451;-64
2020/12/04 06:31:06;;;;;;;16.90;11.80;;;3.30;99.90;;;;;;4955188;28;20522;-63
2020/12/04 06:33:34;;;;;;;13.90;10.30;;;3.40;99.90;;;;;;4955328;29;20443;-63
2020/12/04 06:36:02;;;;;;;16.70;12.17;;;3.50;99.90;;;;;;4955199;29;20454;-64
2020/12/04 06:38:46;;;;;;;18.33;13.33;;;3.50;99.90;;;;;;4954630;29;20944;-64
2020/12/04 06:41:25;;;;;;;14.50;11.37;;;3.40;99.90;;;;;;4958523;28;20478;-64
2020/12/04 06:43:52;;;;;;;13.50;11.97;;;3.40;99.90;;;;;;4958840;29;20525;-63
2020/12/04 06:46:39;;;;;;;15.67;11.53;;;3.30;99.90;;;;;;4958488;29;20443;-64
2020/12/04 06:49:10;;;;;;;13.20;11.73;;;3.40;99.90;;;;;;4958023;29;20463;-65
2020/12/04 06:51:37;;;;;;;17.87;12.10;;;3.40;99.90;;;;;;4958936;28;20475;-65
2020/12/04 06:54:04;;;;;;;19.30;12.23;;;3.40;99.90;;;;;;4958165;29;20443;-65
2020/12/04 06:56:30;;;;;;;18.13;13.20;;;3.50;99.90;;;;;;4957948;29;20816;-64
2020/12/04 06:58:56;;;;;;;17.63;11.87;;;3.50;99.90;;;;;;4958239;29;20467;-65
2020/12/04 07:01:22;;;;;;;15.37;12.10;;;3.50;99.90;;;;;;4957906;28;20483;-64
2020/12/04 07:03:54;;;;;;;15.67;12.67;;;3.70;99.90;;;;;;4958222;29;20970;-65
2020/12/04 07:06:24;;;;;;;15.13;12.77;;;4.10;99.90;;;;;;4958834;29;20491;-65
2020/12/04 07:09:00;;;;;;;17.67;12.50;;;4.30;99.90;;;;;;4957657;29;20546;-65
2020/12/04 07:11:27;;;;;;;14.80;11.50;;;4.20;99.90;;;;;;4957996;28;20479;-65
2020/12/04 07:13:53;;;;;;;14.43;11.27;;;4.20;99.90;;;;;;4957798;29;20451;-65
2020/12/04 07:16:20;;;;;;;19.90;12.57;;;4.30;99.90;;;;;;4957451;29;20970;-64
2020/12/04 07:18:52;;;;;;;22.27;13.63;;;4.30;99.90;;;;;;4958124;29;20853;-65
2020/12/04 07:21:19;;;;;;;17.70;12.80;;;4.30;99.90;;;;;;4957358;28;20847;-65
2020/12/04 07:23:45;;;;;;;19.37;14.57;;;4.20;99.90;;;;;;4957557;29;20455;-63
2020/12/04 07:26:19;;;;;;;17.43;13.83;;;4.20;99.90;;;;;;4957699;29;20536;-63
2020/12/04 07:28:46;;;;;;;18.97;13.40;;;4.20;99.90;;;;;;4957705;29;20443;-64
2020/12/04 07:31:17;;;;;;;20.83;15.40;;;4.10;99.90;;;;;;4958105;28;20471;-64
2020/12/04 07:33:55;;;;;;;21.20;14.27;;;4.00;99.90;;;;;;4958010;29;20591;-63
2020/12/04 07:36:21;;;;;;;18.03;13.33;;;4.00;99.90;;;;;;4958264;29;20447;-64
2020/12/04 07:38:52;;;;;;;18.27;14.30;;;3.90;99.90;;;;;;4957551;29;20463;-63
2020/12/04 07:41:29;;;;;;;18.77;13.40;;;3.90;99.90;;;;;;4957759;28;20498;-63
2020/12/04 07:44:05;;;;;;;18.37;14.10;;;3.90;99.90;;;;;;4957584;29;20811;-63
2020/12/04 07:46:31;;;;;;;17.80;12.83;;;3.90;99.90;;;;;;4957631;29;20462;-64
2020/12/04 07:49:00;;;;;;;16.47;13.90;;;3.80;99.90;;;;;;4957474;29;20452;-64
2020/12/04 07:51:28;;;;;;;18.53;14.00;;;3.80;99.90;;;;;;4956237;28;20526;-64
2020/12/04 07:53:56;;;;;;;24.67;13.73;;;3.80;99.90;;;;;;4956892;29;20486;-64
2020/12/04 07:56:26;;;;;;;21.40;14.60;;;3.80;99.90;;;;;;4957359;28;20451;-64
2020/12/04 07:59:03;;;;;;;19.37;14.83;;;3.80;99.90;;;;;;4957177;29;20440;-64
2020/12/04 08:01:30;;;;;;;20.13;13.43;;;3.80;99.90;;;;;;4957475;28;20578;-64
2020/12/04 08:03:56;;;;;;;19.37;13.27;;;3.90;99.90;;;;;;4957559;29;20455;-64
2020/12/04 08:06:24;;;;;;;26.93;13.80;;;3.90;99.90;;;;;;4957382;29;20455;-64
2020/12/04 08:09:06;;;;;;;22.83;13.90;;;3.90;99.90;;;;;;4957725;29;20460;-68
2020/12/04 08:11:36;;;;;;;18.07;13.50;;;4.00;99.90;;;;;;4957863;28;20474;-63
2020/12/04 08:14:03;;;;;;;15.70;12.43;;;3.90;99.90;;;;;;4957489;29;20451;-64
2020/12/04 08:16:31;;;;;;;14.63;11.53;;;3.90;99.90;;;;;;4957580;29;20546;-63
2020/12/04 08:19:03;;;;;;;11.87;10.50;;;4.00;99.90;;;;;;4957020;29;20440;-64
2020/12/04 08:21:29;;;;;;;15.90;11.27;;;4.00;99.90;;;;;;4956686;28;20471;-65
2020/12/04 08:23:56;;;;;;;13.53;11.40;;;4.00;99.90;;;;;;4956879;29;20439;-65
2020/12/04 08:26:22;;;;;;;14.33;10.57;;;4.00;99.90;;;;;;4956858;29;20506;-65
2020/12/04 08:28:54;;;;;;;14.10;9.97;;;4.00;99.90;;;;;;4957198;29;20447;-65
2020/12/04 08:31:25;;;;;;;16.57;10.43;;;4.20;99.90;;;;;;4957632;28;20857;-65
2020/12/04 08:33:51;;;;;;;11.73;10.40;;;4.30;99.90;;;;;;4956927;29;20542;-65
2020/12/04 08:36:18;;;;;;;11.47;10.00;;;4.30;99.90;;;;;;4956326;29;20982;-65
2020/12/04 08:38:52;;;;;;;13.07;10.07;;;4.30;99.90;;;;;;4956389;29;20458;-65
2020/12/04 08:41:19;;;;;;;15.60;10.30;;;4.50;99.90;;;;;;4956732;28;20471;-66
2020/12/04 08:43:47;;;;;;;11.57;9.83;;;4.50;99.90;;;;;;4956602;29;20559;-65
2020/12/04 08:46:15;;;;;;;15.47;10.20;;;4.70;99.90;;;;;;4956464;29;20463;-63
2020/12/04 08:48:41;;;;;;;12.00;9.90;;;4.70;99.90;;;;;;4956932;29;20852;-64
2020/12/04 08:51:08;;;;;;;13.83;10.93;;;4.70;99.90;;;;;;4956947;28;20483;-63
2020/12/04 08:53:35;;;;;;;14.60;10.60;;;4.90;99.90;;;;;;4956579;29;20447;-63
2020/12/04 08:56:03;;;;;;;11.43;9.43;;;4.90;99.90;;;;;;4956512;28;20456;-64
2020/12/04 08:58:30;;;;;;;13.70;11.10;;;5.00;99.90;;;;;;4956006;29;20463;-64
2020/12/04 09:00:59;;;;;;;11.73;9.53;;;5.00;99.90;;;;;;4956086;28;20475;-64
2020/12/04 09:03:26;;;;;;;14.43;10.30;;;5.00;99.90;;;;;;4954911;28;20967;-63
2020/12/04 09:05:55;;;;;;;12.47;11.13;;;5.10;99.90;;;;;;4955684;29;20455;-66
2020/12/04 09:08:21;;;;;;;14.53;11.07;;;5.10;99.90;;;;;;4956198;29;20502;-63
2020/12/04 09:10:47;;;;;;;12.87;11.17;;;5.20;99.90;;;;;;4955824;28;20548;-63
2020/12/04 09:13:15;;;;;;;17.43;10.57;;;5.30;99.90;;;;;;4956330;29;20456;-64
2020/12/04 09:15:41;;;;;;;12.57;9.70;;;5.40;99.90;;;;;;4956380;29;20460;-64
2020/12/04 09:18:07;;;;;;;12.87;9.63;;;5.50;99.90;;;;;;4955978;29;20463;-64
2020/12/04 09:20:34;;;;;;;21.63;11.07;;;5.60;99.90;;;;;;4957386;28;20468;-63
2020/12/04 09:23:01;;;;;;;13.03;10.20;;;5.70;99.90;;;;;;4958978;29;20515;-64
2020/12/04 09:25:27;;;;;;;13.97;10.53;;;5.90;99.90;;;;;;4955616;29;20466;-64
2020/12/04 09:27:53;;;;;;;13.10;10.30;;;6.10;99.90;;;;;;4955773;29;20452;-66
2020/12/04 09:30:21;;;;;;;14.30;10.17;;;6.10;99.90;;;;;;4955223;28;20999;-66
2020/12/04 09:32:49;;;;;;;12.90;10.73;;;6.20;99.90;;;;;;4955685;29;20463;-63
2020/12/04 09:35:16;;;;;;;11.80;9.60;;;6.10;99.90;;;;;;4955855;29;20468;-63
2020/12/04 09:37:44;;;;;;;15.40;10.00;;;5.90;99.90;;;;;;4956088;29;20459;-66
2020/12/04 09:40:13;;;;;;;13.47;10.90;;;5.80;99.90;;;;;;4956033;29;20447;-64
2020/12/04 09:42:40;;;;;;;20.80;11.30;;;5.70;99.90;;;;;;4956147;29;20452;-65
2020/12/04 09:45:07;;;;;;;13.57;11.20;;;5.70;99.90;;;;;;4956611;29;20442;-64
2020/12/04 09:47:35;;;;;;;13.07;11.63;;;5.60;99.90;;;;;;4955787;29;20977;-65
2020/12/04 09:50:03;;;;;;;16.80;11.50;;;5.70;99.90;;;;;;4956153;29;20483;-63
2020/12/04 09:52:29;;;;;;;15.00;11.67;;;5.80;99.90;;;;;;4955654;28;20554;-63
2020/12/04 09:54:56;;;;;;;17.13;12.10;;;5.80;99.90;;;;;;4956107;29;20459;-64
2020/12/04 09:57:23;;;;;;;22.47;11.37;;;5.90;99.90;;;;;;4956012;29;20451;-64
2020/12/04 09:59:50;;;;;;;13.80;11.77;;;5.90;99.90;;;;;;4955704;29;20475;-64
2020/12/04 10:02:16;;;;;;;17.63;10.93;;;6.00;99.90;;;;;;4955863;28;20489;-65
2020/12/04 10:04:43;;;;;;;14.00;11.17;;;6.10;99.90;;;;;;4956001;29;20451;-64
2020/12/04 10:07:09;;;;;;;16.43;11.53;;;6.20;99.90;;;;;;4955710;29;20451;-64
2020/12/04 10:09:36;;;;;;;21.23;13.03;;;6.20;99.90;;;;;;4955720;29;20483;-64
2020/12/04 10:12:04;;;;;;;16.10;11.43;;;6.20;99.90;;;;;;4957312;28;20471;-64
2020/12/04 10:14:30;;;;;;;14.53;10.70;;;6.20;99.90;;;;;;4956871;28;20459;-63
2020/12/04 10:16:56;;;;;;;17.43;10.40;;;6.10;99.90;;;;;;4959446;29;20902;-64
2020/12/04 10:19:23;;;;;;;12.83;10.83;;;6.10;99.90;;;;;;4959017;29;20452;-64
2020/12/04 10:21:49;;;;;;;12.37;10.87;;;6.10;99.90;;;;;;4958964;28;20475;-64
2020/12/04 10:24:17;;;;;;;14.47;10.80;;;6.20;99.90;;;;;;4959204;29;20486;-64
2020/12/04 10:26:46;;;;;;;12.03;10.53;;;6.10;99.90;;;;;;4959459;28;20477;-64
2020/12/04 10:29:13;;;;;;;17.17;11.30;;;6.20;99.90;;;;;;4960214;29;20458;-64
2020/12/04 10:31:40;;;;;;;17.70;11.70;;;6.20;99.90;;;;;;4958928;28;20472;-64
2020/12/04 10:34:06;;;;;;;14.90;11.70;;;6.20;99.90;;;;;;4959732;29;20455;-64
2020/12/04 10:36:32;;;;;;;10.83;9.50;;;6.10;99.90;;;;;;4958909;29;20817;-64
2020/12/04 10:38:59;;;;;;;12.40;10.70;;;6.00;99.90;;;;;;4959087;29;20455;-64
2020/12/04 10:41:25;;;;;;;13.53;10.60;;;6.10;99.90;;;;;;4958741;28;20482;-64
2020/12/04 10:43:51;;;;;;;11.93;10.63;;;5.90;99.90;;;;;;4958705;29;20466;-64
2020/12/04 10:46:18;;;;;;;13.20;10.57;;;5.80;99.90;;;;;;4958737;29;20451;-63
2020/12/04 10:48:45;;;;;;;15.27;12.20;;;5.80;99.90;;;;;;4959673;29;20435;-63
2020/12/04 10:51:11;;;;;;;12.93;11.20;;;5.90;99.90;;;;;;4958409;28;20483;-65
2020/12/04 10:53:37;;;;;;;14.53;12.67;;;6.00;99.90;;;;;;4958540;29;20455;-65
2020/12/04 10:56:03;;;;;;;13.90;11.77;;;6.00;99.90;;;;;;4958370;29;20458;-65
2020/12/04 10:58:29;;;;;;;16.10;11.93;;;6.00;99.90;;;;;;4958872;29;20455;-63
2020/12/04 11:00:56;;;;;;;15.47;11.47;;;6.00;99.90;;;;;;4958087;28;20887;-64
2020/12/04 11:03:31;;;;;;;20.83;16.10;;;6.10;99.90;;;;;;4958641;29;20452;-64
2020/12/04 11:05:57;;;;;;;10.60;9.50;;;6.20;99.90;;;;;;4958564;29;20439;-63
2020/12/04 11:08:23;;;;;;;13.20;10.70;;;6.20;99.90;;;;;;4958650;29;20535;-64
2020/12/04 11:10:50;;;;;;;15.13;11.63;;;6.20;99.90;;;;;;4958552;28;20251;-63
2020/12/04 11:13:16;;;;;;;15.70;11.40;;;6.20;99.90;;;;;;4958199;29;20440;-63
2020/12/04 11:15:42;;;;;;;11.83;10.00;;;6.20;99.90;;;;;;4958091;29;20921;-63
2020/12/04 11:18:08;;;;;;;15.37;12.40;;;6.20;99.90;;;;;;4958021;29;20827;-64
2020/12/04 11:20:35;;;;;;;14.37;11.17;;;6.10;99.90;;;;;;4957992;28;20479;-63
2020/12/04 11:23:01;;;;;;;15.83;11.37;;;6.10;99.90;;;;;;4958494;29;20455;-63
2020/12/04 11:25:28;;;;;;;15.20;10.77;;;6.10;99.90;;;;;;4957028;28;20455;-64
2020/12/04 11:27:54;;;;;;;16.23;11.30;;;6.10;99.90;;;;;;4957390;29;20452;-65
2020/12/04 11:30:22;;;;;;;13.70;11.70;;;5.90;99.90;;;;;;4957423;28;21011;-63
2020/12/04 11:32:50;;;;;;;16.10;10.93;;;5.80;99.90;;;;;;4957711;29;20455;-63
2020/12/04 11:35:18;;;;;;;13.77;10.57;;;5.90;99.90;;;;;;4957421;29;20455;-63
2020/12/04 11:37:48;;;;;;;13.10;10.63;;;5.90;99.90;;;;;;4957673;28;20456;-65
2020/12/04 11:40:15;;;;;;;16.40;12.23;;;5.90;99.90;;;;;;4957823;29;20436;-64
2020/12/04 11:42:43;;;;;;;11.80;10.43;;;5.90;99.90;;;;;;4957764;29;20487;-64
2020/12/04 11:45:11;;;;;;;16.10;11.83;;;5.80;99.90;;;;;;4957571;29;20564;-65
2020/12/04 11:47:38;;;;;;;16.83;12.17;;;5.90;99.90;;;;;;4957436;29;20455;-65
2020/12/04 11:50:05;;;;;;;17.57;12.80;;;5.90;99.90;;;;;;4957532;29;20483;-65
2020/12/04 11:52:32;;;;;;;20.53;11.03;;;5.90;99.90;;;;;;4957452;28;20472;-64
2020/12/04 11:54:59;;;;;;;12.90;11.47;;;5.80;99.90;;;;;;4957297;29;20451;-65
2020/12/04 11:57:25;;;;;;;14.10;10.70;;;5.80;99.90;;;;;;4957237;29;20456;-64
2020/12/04 11:59:51;;;;;;;15.70;11.30;;;5.90;99.90;;;;;;4957312;29;20455;-64
2020/12/04 12:02:18;;;;;;;15.33;11.30;;;5.90;99.90;;;;;;4958371;28;20490;-64
2020/12/04 12:04:44;;;;;;;13.63;11.50;;;6.00;99.90;;;;;;4957411;28;20483;-64
2020/12/04 12:07:10;;;;;;;17.00;11.73;;;6.00;99.90;;;;;;4957166;29;20991;-64
2020/12/04 12:09:37;;;;;;;12.53;11.23;;;6.10;99.90;;;;;;4957593;29;20487;-64
2020/12/04 12:12:04;;;;;;;11.90;10.70;;;6.10;99.90;;;;;;4957359;28;20884;-64
2020/12/04 12:14:30;;;;;;;14.60;11.57;;;6.20;99.90;;;;;;4957285;29;20829;-64
2020/12/04 12:16:56;;;;;;;15.00;11.60;;;6.30;99.90;;;;;;4957149;29;20442;-64
2020/12/04 12:19:22;;;;;;;12.57;11.23;;;6.20;99.90;;;;;;4957058;29;20451;-63
2020/12/04 12:21:49;;;;;;;17.20;11.33;;;6.30;99.90;;;;;;4956817;28;20475;-64
2020/12/04 12:24:16;;;;;;;14.47;11.70;;;6.20;99.90;;;;;;4956945;29;20885;-64
2020/12/04 12:26:42;;;;;;;12.53;10.60;;;6.20;99.90;;;;;;4956892;29;20463;-64
2020/12/04 12:29:09;;;;;;;12.17;10.10;;;6.20;99.90;;;;;;4957271;29;20455;-64
2020/12/04 12:31:36;;;;;;;14.23;11.13;;;6.20;99.90;;;;;;4957280;28;20491;-64
2020/12/04 12:34:02;;;;;;;14.40;10.00;;;6.30;99.90;;;;;;4957740;29;20455;-64
2020/12/04 12:36:28;;;;;;;13.27;10.80;;;6.30;99.90;;;;;;4956827;29;20452;-64
2020/12/04 12:38:56;;;;;;;15.20;10.50;;;6.30;99.90;;;;;;4956770;28;20466;-65
2020/12/04 12:41:22;;;;;;;11.57;10.37;;;6.20;99.90;;;;;;4956895;28;20554;-64
2020/12/04 12:43:48;;;;;;;15.23;10.10;;;6.10;99.90;;;;;;4956844;29;20802;-64
2020/12/04 12:46:16;;;;;;;14.53;11.33;;;6.10;99.90;;;;;;4956731;29;20461;-63
2020/12/04 12:48:42;;;;;;;13.37;11.20;;;6.10;99.90;;;;;;4956639;29;20459;-65
2020/12/04 12:51:08;;;;;;;13.47;10.37;;;6.20;99.90;;;;;;4956346;28;20487;-65
2020/12/04 12:53:34;;;;;;;14.60;10.57;;;6.10;99.90;;;;;;4956573;29;20447;-63
2020/12/04 12:56:01;;;;;;;11.90;10.30;;;6.20;99.90;;;;;;4956540;29;20455;-64
2020/12/04 12:58:27;;;;;;;13.83;10.30;;;6.20;99.90;;;;;;4956898;29;20452;-62
2020/12/04 13:00:53;;;;;;;20.53;11.00;;;6.20;99.90;;;;;;4956597;28;20486;-63
2020/12/04 13:03:20;;;;;;;14.00;9.77;;;6.20;99.90;;;;;;4956586;29;20815;-63
2020/12/04 13:05:46;;;;;;;16.97;11.27;;;6.20;99.90;;;;;;4956233;29;20448;-63
2020/12/04 13:08:14;;;;;;;13.57;11.57;;;6.20;99.90;;;;;;4956475;29;20452;-63
2020/12/04 13:10:40;;;;;;;17.00;11.70;;;6.20;99.90;;;;;;4956149;28;20855;-64
2020/12/04 13:13:07;;;;;;;13.50;10.73;;;6.20;99.90;;;;;;4956062;29;20436;-63
2020/12/04 13:15:33;;;;;;;12.00;10.60;;;6.20;99.90;;;;;;4957221;29;20455;-65
2020/12/04 13:18:00;;;;;;;16.17;11.27;;;6.20;99.90;;;;;;4956477;29;20451;-64
2020/12/04 13:20:27;;;;;;;14.90;10.30;;;6.20;99.90;;;;;;4957139;28;20452;-63
2020/12/04 13:23:12;;;;;;;14.00;10.87;;;6.10;99.90;;;;;;4956424;29;20463;-62
2020/12/04 13:25:39;;;;;;;14.13;10.77;;;6.10;99.90;;;;;;4956415;29;20436;-64
2020/12/04 13:28:05;;;;;;;14.60;10.57;;;6.00;99.90;;;;;;4956888;29;20805;-63
2020/12/04 13:30:31;;;;;;;11.37;9.93;;;6.00;99.90;;;;;;4956289;28;20475;-63
2020/12/04 13:33:00;;;;;;;16.17;11.80;;;6.10;99.90;;;;;;4956688;29;20543;-63
2020/12/04 13:35:28;;;;;;;11.73;9.97;;;6.00;99.90;;;;;;4956158;29;20530;-63
2020/12/04 13:37:54;;;;;;;15.30;11.97;;;6.00;99.90;;;;;;4956333;29;20452;-65
2020/12/04 13:40:20;;;;;;;14.10;10.73;;;6.00;99.90;;;;;;4956274;28;20451;-62
2020/12/04 13:42:46;;;;;;;16.70;11.40;;;6.00;99.90;;;;;;4956986;29;20451;-63
2020/12/04 13:45:13;;;;;;;14.87;11.67;;;6.00;99.90;;;;;;4956451;29;20462;-64
2020/12/04 13:47:39;;;;;;;14.03;11.80;;;6.00;99.90;;;;;;4956722;29;20459;-64
2020/12/04 13:50:06;;;;;;;18.87;11.13;;;6.10;99.90;;;;;;4955848;28;20506;-64
2020/12/04 13:52:33;;;;;;;14.87;12.10;;;6.00;99.90;;;;;;4956784;28;20830;-63
2020/12/04 13:54:59;;;;;;;16.03;11.70;;;6.00;99.90;;;;;;4957843;29;20452;-63
2020/12/04 13:57:25;;;;;;;13.60;11.10;;;6.10;99.90;;;;;;4959874;29;20459;-63
2020/12/04 13:59:51;;;;;;;14.53;12.00;;;6.00;99.90;;;;;;4960325;29;20506;-63
2020/12/04 14:02:17;;;;;;;13.40;11.60;;;6.00;99.90;;;;;;4958865;28;20490;-63
2020/12/04 14:04:43;;;;;;;15.83;12.13;;;6.00;99.90;;;;;;4958185;29;20456;-63
2020/12/04 14:07:10;;;;;;;15.93;12.70;;;5.90;99.90;;;;;;4957259;29;20479;-64
2020/12/04 14:09:37;;;;;;;16.70;14.23;;;5.90;99.90;;;;;;4956379;29;20803;-63
2020/12/04 14:12:04;;;;;;;17.43;13.37;;;5.90;99.90;;;;;;4957220;28;20988;-63
2020/12/04 14:14:30;;;;;;;16.30;13.13;;;5.70;99.90;;;;;;4957348;29;20475;-64
2020/12/04 14:16:57;;;;;;;18.70;13.67;;;5.70;99.90;;;;;;4957443;29;20945;-62
2020/12/04 14:19:23;;;;;;;17.70;13.70;;;5.60;99.90;;;;;;4956150;29;20459;-63
2020/12/04 14:21:49;;;;;;;16.70;14.83;;;5.60;99.90;;;;;;4956110;28;20468;-64
2020/12/04 14:24:15;;;;;;;15.27;13.40;;;5.60;99.90;;;;;;4955596;29;20480;-63
2020/12/04 14:26:43;;;;;;;22.20;15.50;;;5.60;99.90;;;;;;4955312;29;20455;-65
2020/12/04 14:29:09;;;;;;;20.37;13.60;;;5.40;99.90;;;;;;4955204;29;20455;-64
2020/12/04 14:31:35;;;;;;;19.60;14.90;;;5.50;99.90;;;;;;4955721;28;20495;-64
2020/12/04 14:34:01;;;;;;;19.33;14.10;;;5.60;99.90;;;;;;4956032;29;20458;-64
2020/12/04 14:36:27;;;;;;;20.10;15.90;;;5.60;99.90;;;;;;4955232;29;20481;-63
2020/12/04 14:39:04;;;;;;;27.07;16.93;;;5.50;99.90;;;;;;4956026;29;20843;-64
2020/12/04 14:41:31;;;;;;;20.07;17.50;;;5.40;99.90;;;;;;4956118;28;20567;-64
2020/12/04 14:43:58;;;;;;;20.33;16.90;;;5.30;99.90;;;;;;4957705;29;20506;-64
2020/12/04 14:46:25;;;;;;;21.40;17.33;;;5.40;99.90;;;;;;4957655;29;20459;-63
2020/12/04 14:48:51;;;;;;;25.10;18.67;;;5.40;99.90;;;;;;4956547;29;20460;-64
2020/12/04 14:51:18;;;;;;;24.23;19.90;;;5.30;99.90;;;;;;4956344;28;20483;-65
2020/12/04 14:53:44;;;;;;;23.47;19.90;;;5.30;99.90;;;;;;4956501;29;20452;-64
2020/12/04 14:56:12;;;;;;;21.90;17.67;;;5.30;99.90;;;;;;4956468;29;20451;-66
2020/12/04 14:58:38;;;;;;;25.87;19.40;;;5.30;99.90;;;;;;4956007;29;20451;-65
2020/12/04 15:01:06;;;;;;;24.00;17.93;;;5.30;99.90;;;;;;4956260;28;20475;-65
2020/12/04 15:03:32;;;;;;;20.27;17.10;;;5.30;99.90;;;;;;4959469;29;20459;-65
2020/12/04 15:05:59;;;;;;;23.97;18.53;;;5.30;99.90;;;;;;4960001;29;20448;-64
2020/12/04 15:08:25;;;;;;;24.53;18.30;;;5.30;99.90;;;;;;4959564;29;20447;-63
2020/12/04 15:10:52;;;;;;;24.23;18.47;;;5.30;99.90;;;;;;4959030;28;20575;-65
2020/12/04 15:13:19;;;;;;;23.40;19.27;;;5.30;99.90;;;;;;4958745;29;20932;-64
2020/12/04 15:15:46;;;;;;;25.53;18.80;;;5.30;99.90;;;;;;4958278;29;20471;-65
2020/12/04 15:18:13;;;;;;;28.03;19.30;;;5.20;99.90;;;;;;4958523;29;20458;-65
2020/12/04 15:20:39;;;;;;;25.50;19.97;;;5.20;99.90;;;;;;4957973;28;20984;-65
2020/12/04 15:23:07;;;;;;;26.67;20.80;;;5.10;99.90;;;;;;4959204;29;20455;-65
2020/12/04 15:25:33;;;;;;;27.30;20.23;;;5.00;99.90;;;;;;4959444;29;20451;-65
2020/12/04 15:28:00;;;;;;;24.20;18.43;;;5.00;99.90;;;;;;4958324;29;20458;-64
2020/12/04 15:30:27;;;;;;;25.17;18.93;;;4.90;99.90;;;;;;4958891;28;20530;-64
2020/12/04 15:32:53;;;;;;;25.50;19.27;;;4.80;99.90;;;;;;4958273;29;20439;-64
2020/12/04 15:35:20;;;;;;;25.00;19.10;;;4.80;99.90;;;;;;4958072;29;20836;-63
2020/12/04 15:37:47;;;;;;;23.67;19.30;;;4.90;99.90;;;;;;4958287;29;20463;-64
2020/12/04 15:40:13;;;;;;;25.07;20.53;;;4.90;99.90;;;;;;4957707;29;20953;-63
2020/12/04 15:42:39;;;;;;;35.27;20.17;;;5.00;99.90;;;;;;4958034;28;20483;-63
2020/12/04 15:45:06;;;;;;;26.90;18.93;;;5.00;99.90;;;;;;4958054;29;20456;-64
2020/12/04 15:47:32;;;;;;;23.97;18.37;;;5.00;99.90;;;;;;4957790;29;20464;-63
2020/12/04 15:50:00;;;;;;;27.97;19.53;;;5.00;99.90;;;;;;4957922;29;20451;-63
2020/12/04 15:52:27;;;;;;;23.67;19.70;;;5.00;99.90;;;;;;4959075;28;20822;-64
2020/12/04 15:54:55;;;;;;;24.67;19.73;;;4.90;99.90;;;;;;4960819;29;20462;-64
2020/12/04 15:57:21;;;;;;;24.63;20.00;;;4.90;99.90;;;;;;4957884;29;20487;-63
2020/12/04 15:59:47;;;;;;;25.80;19.67;;;5.00;99.90;;;;;;4957802;29;20805;-65
2020/12/04 16:02:13;;;;;;;24.20;20.20;;;5.00;99.90;;;;;;4957546;28;20476;-62
2020/12/04 16:04:40;;;;;;;26.00;19.23;;;4.90;99.90;;;;;;4957810;29;20471;-62
2020/12/04 16:07:06;;;;;;;22.63;18.97;;;4.80;99.90;;;;;;4958707;29;20479;-62
2020/12/04 16:09:33;;;;;;;27.97;19.77;;;4.90;99.90;;;;;;4959033;29;20868;-62
2020/12/04 16:11:59;;;;;;;30.23;22.50;;;4.90;99.90;;;;;;4957398;28;20487;-62
2020/12/04 16:14:26;;;;;;;28.43;20.80;;;4.90;99.90;;;;;;4957224;29;20463;-62
2020/12/04 16:16:53;;;;;;;26.00;21.30;;;4.90;99.90;;;;;;4957307;29;20483;-62
2020/12/04 16:19:20;;;;;;;27.50;21.33;;;4.90;99.90;;;;;;4957646;29;20463;-62
2020/12/04 16:21:48;;;;;;;27.03;21.13;;;4.80;99.90;;;;;;4957624;28;20463;-63
2020/12/04 16:24:16;;;;;;;28.63;21.30;;;4.80;99.90;;;;;;4959215;29;20464;-64
2020/12/04 16:26:43;;;;;;;33.57;25.00;;;4.70;99.90;;;;;;4957401;29;20949;-63
2020/12/04 16:29:10;;;;;;;35.40;24.60;;;4.70;99.90;;;;;;4957232;29;20861;-63
2020/12/04 16:31:37;;;;;;;31.80;24.80;;;4.70;99.90;;;;;;4956715;28;21034;-64
2020/12/04 16:34:04;;;;;;;31.23;22.50;;;4.70;99.90;;;;;;4957078;28;20451;-62
2020/12/04 16:36:30;;;;;;;31.00;23.57;;;4.60;99.90;;;;;;4957058;29;20817;-62
2020/12/04 16:38:59;;;;;;;34.00;24.20;;;4.60;99.90;;;;;;4956549;29;20451;-63
2020/12/04 16:41:25;;;;;;;32.50;23.20;;;4.50;99.90;;;;;;4956481;28;20869;-63
2020/12/04 16:43:52;;;;;;;30.60;23.77;;;4.50;99.90;;;;;;4956874;28;20451;-63
2020/12/04 16:46:19;;;;;;;29.93;23.20;;;4.50;99.90;;;;;;4956527;29;20436;-63
2020/12/04 16:48:45;;;;;;;29.03;21.63;;;4.50;99.90;;;;;;4956526;29;20817;-63
2020/12/04 16:51:13;;;;;;;34.37;23.30;;;4.30;99.90;;;;;;4956780;28;20872;-62
2020/12/04 16:53:40;;;;;;;30.10;23.03;;;4.30;99.90;;;;;;4956589;29;20486;-64
2020/12/04 16:56:06;;;;;;;27.47;20.83;;;4.30;99.90;;;;;;4956466;29;20462;-63
2020/12/04 16:58:32;;;;;;;28.10;21.33;;;4.40;99.90;;;;;;4956734;29;20447;-63
2020/12/04 17:00:59;;;;;;;29.30;21.23;;;4.40;99.90;;;;;;4956573;28;20472;-63
2020/12/04 17:03:27;;;;;;;32.90;22.63;;;4.50;99.90;;;;;;4956825;29;20820;-63
2020/12/04 17:05:53;;;;;;;32.53;23.20;;;4.50;99.90;;;;;;4956183;29;20447;-63
2020/12/04 17:08:19;;;;;;;34.63;25.40;;;4.60;99.90;;;;;;4956154;29;20458;-63
2020/12/04 17:10:45;;;;;;;31.50;22.73;;;4.60;99.90;;;;;;4956373;28;20487;-64
2020/12/04 17:13:11;;;;;;;29.53;21.30;;;4.70;99.90;;;;;;4956209;29;20863;-64
2020/12/04 17:15:38;;;;;;;31.27;23.70;;;4.70;99.90;;;;;;4956552;29;20450;-63
2020/12/04 17:18:05;;;;;;;37.07;23.33;;;4.70;99.90;;;;;;4956229;29;20456;-63
2020/12/04 17:20:31;;;;;;;30.40;24.23;;;4.70;99.90;;;;;;4956423;28;20448;-65
2020/12/04 17:22:57;;;;;;;34.20;24.20;;;4.80;99.90;;;;;;4956760;29;20451;-63
2020/12/04 17:25:23;;;;;;;33.97;25.53;;;4.80;99.90;;;;;;4956440;29;20455;-63
2020/12/04 17:27:49;;;;;;;34.00;25.80;;;4.80;99.90;;;;;;4956049;29;20832;-63
2020/12/04 17:30:16;;;;;;;35.37;27.20;;;4.80;99.90;;;;;;4956074;29;20455;-64
2020/12/04 17:32:42;;;;;;;32.27;23.63;;;4.70;99.90;;;;;;4955782;28;20523;-66
2020/12/04 17:35:09;;;;;;;30.53;23.10;;;4.60;99.90;;;;;;4955854;29;20458;-64
2020/12/04 17:37:35;;;;;;;41.50;23.03;;;4.60;99.90;;;;;;4955563;29;20813;-64
2020/12/04 17:40:01;;;;;;;35.60;23.83;;;4.60;99.90;;;;;;4955202;29;20462;-65